createdAt,value
2018-12-12T00:00:48.788Z,1015.50
2018-12-12T00:01:48.779Z,1015.47
2018-12-12T00:02:48.778Z,1015.46
2018-12-12T00:03:48.752Z,1015.46
2018-12-12T00:04:48.755Z,1015.53
2018-12-12T00:05:48.737Z,1015.53
2018-12-12T00:06:48.721Z,1015.49
2018-12-12T00:07:48.726Z,1015.51
2018-12-12T00:09:48.686Z,1015.51
2018-12-12T00:10:48.680Z,1015.50
2018-12-12T00:11:48.666Z,1015.47
2018-12-12T00:12:48.674Z,1015.52
2018-12-12T00:13:48.659Z,1015.49
2018-12-12T00:14:48.632Z,1015.53
2018-12-12T00:15:48.622Z,1015.53
2018-12-12T00:16:48.609Z,1015.51
2018-12-12T00:17:48.859Z,1015.52
2018-12-12T00:18:48.589Z,1015.57
2018-12-12T00:19:48.576Z,1015.50
2018-12-12T00:20:48.578Z,1015.53
2018-12-12T00:21:48.555Z,1015.54
2018-12-12T00:22:48.543Z,1015.51
2018-12-12T00:23:48.551Z,1015.48
2018-12-12T00:24:48.521Z,1015.46
2018-12-12T00:25:48.509Z,1015.49
2018-12-12T00:26:48.497Z,1015.46
2018-12-12T00:27:48.491Z,1015.55
2018-12-12T00:28:48.513Z,1015.52
2018-12-12T00:29:48.469Z,1015.51
2018-12-12T00:30:48.456Z,1015.53
2018-12-12T00:31:48.442Z,1015.50
2018-12-12T00:32:48.439Z,1015.57
2018-12-12T00:33:48.443Z,1015.58
2018-12-12T00:34:48.419Z,1015.55
2018-12-12T00:35:48.403Z,1015.61
2018-12-12T00:36:48.394Z,1015.55
2018-12-12T00:37:48.375Z,1015.57
2018-12-12T00:38:48.393Z,1015.60
2018-12-12T00:39:48.361Z,1015.55
2018-12-12T00:40:48.351Z,1015.61
2018-12-12T00:41:48.335Z,1015.61
2018-12-12T00:42:48.321Z,1015.65
2018-12-12T00:43:48.356Z,1015.61
2018-12-12T00:44:48.305Z,1015.64
2018-12-12T00:45:48.298Z,1015.64
2018-12-12T00:46:48.281Z,1015.65
2018-12-12T00:47:48.269Z,1015.68
2018-12-12T00:48:48.277Z,1015.67
2018-12-12T00:49:48.245Z,1015.67
2018-12-12T00:50:48.238Z,1015.66
2018-12-12T00:51:48.225Z,1015.64
2018-12-12T00:52:48.217Z,1015.68
2018-12-12T00:53:48.228Z,1015.68
2018-12-12T00:54:48.193Z,1015.69
2018-12-12T00:55:48.183Z,1015.70
2018-12-12T00:56:48.165Z,1015.73
2018-12-12T00:57:48.158Z,1015.74
2018-12-12T00:58:48.164Z,1015.71
2018-12-12T00:59:48.134Z,1015.76
2018-12-12T01:00:48.133Z,1015.77
2018-12-12T01:01:48.131Z,1015.78
2018-12-12T01:02:48.109Z,1015.76
2018-12-12T01:03:48.111Z,1015.80
2018-12-12T01:04:48.083Z,1015.82
2018-12-12T01:05:48.072Z,1015.87
2018-12-12T01:06:48.082Z,1015.84
2018-12-12T01:07:48.051Z,1015.88
2018-12-12T01:08:48.053Z,1015.84
2018-12-12T01:09:48.025Z,1015.85
2018-12-12T01:10:48.013Z,1015.86
2018-12-12T01:11:48.006Z,1015.84
2018-12-12T01:12:47.997Z,1015.88
2018-12-12T01:13:47.983Z,1015.92
2018-12-12T01:14:47.993Z,1015.89
2018-12-12T01:15:47.966Z,1015.89
2018-12-12T01:16:47.960Z,1015.93
2018-12-12T01:17:47.941Z,1015.89
2018-12-12T01:18:47.935Z,1015.93
2018-12-12T01:19:47.933Z,1015.95
2018-12-12T01:20:47.907Z,1015.95
2018-12-12T01:21:47.895Z,1015.96
2018-12-12T01:22:47.885Z,1015.99
2018-12-12T01:23:47.871Z,1015.98
2018-12-12T01:24:47.877Z,1016.01
2018-12-12T01:25:47.851Z,1015.99
2018-12-12T01:26:47.840Z,1016.01
2018-12-12T01:27:47.831Z,1016.03
2018-12-12T01:28:47.817Z,1016.05
2018-12-12T01:29:47.916Z,1016.08
2018-12-12T01:30:47.794Z,1016.05
2018-12-12T01:31:47.793Z,1016.10
2018-12-12T01:32:47.775Z,1016.08
2018-12-12T01:33:47.767Z,1016.13
2018-12-12T01:34:47.776Z,1016.16
2018-12-12T01:35:47.751Z,1016.12
2018-12-12T01:36:47.736Z,1016.17
2018-12-12T01:37:47.723Z,1016.15
2018-12-12T01:38:47.707Z,1016.18
2018-12-12T01:39:47.746Z,1016.22
2018-12-12T01:40:47.693Z,1016.20
2018-12-12T01:41:47.684Z,1016.20
2018-12-12T01:42:47.663Z,1016.21
2018-12-12T01:43:47.656Z,1016.18
2018-12-12T01:44:47.659Z,1016.15
2018-12-12T01:45:47.635Z,1016.17
2018-12-12T01:46:47.621Z,1016.17
2018-12-12T01:47:47.611Z,1016.15
2018-12-12T01:48:47.607Z,1016.13
2018-12-12T01:49:47.609Z,1016.16
2018-12-12T01:50:47.575Z,1016.15
2018-12-12T01:51:47.569Z,1016.12
2018-12-12T01:52:47.553Z,1016.16
2018-12-12T01:53:47.549Z,1016.16
2018-12-12T01:54:47.557Z,1016.17
2018-12-12T01:55:47.525Z,1016.16
2018-12-12T01:56:47.511Z,1016.18
2018-12-12T01:57:47.499Z,1016.18
2018-12-12T01:58:47.487Z,1016.17
2018-12-12T01:59:47.477Z,1016.19
2018-12-12T02:00:47.487Z,1016.20
2018-12-12T02:01:47.492Z,1016.18
2018-12-12T02:02:47.446Z,1016.20
2018-12-12T02:03:47.433Z,1016.15
2018-12-12T02:04:47.423Z,1016.14
2018-12-12T02:05:47.435Z,1016.17
2018-12-12T02:06:47.400Z,1016.20
2018-12-12T02:07:47.389Z,1016.25
2018-12-12T02:08:47.381Z,1016.25
2018-12-12T02:09:47.367Z,1016.24
2018-12-12T02:10:47.375Z,1016.23
2018-12-12T02:11:47.353Z,1016.27
2018-12-12T02:12:47.337Z,1016.28
2018-12-12T02:13:47.332Z,1016.32
2018-12-12T02:14:47.323Z,1016.35
2018-12-12T02:15:47.321Z,1016.35
2018-12-12T02:16:47.291Z,1016.33
2018-12-12T02:17:47.281Z,1016.36
2018-12-12T02:18:47.267Z,1016.37
2018-12-12T02:19:47.256Z,1016.38
2018-12-12T02:20:47.262Z,1016.36
2018-12-12T02:21:47.238Z,1016.38
2018-12-12T02:22:47.221Z,1016.36
2018-12-12T02:23:47.213Z,1016.43
2018-12-12T02:24:47.203Z,1016.43
2018-12-12T02:25:47.208Z,1016.45
2018-12-12T02:26:47.184Z,1016.43
2018-12-12T02:27:47.171Z,1016.46
2018-12-12T02:28:47.157Z,1016.46
2018-12-12T02:29:47.155Z,1016.44
2018-12-12T02:30:47.265Z,1016.47
2018-12-12T02:31:47.130Z,1016.45
2018-12-12T02:32:47.117Z,1016.44
2018-12-12T02:33:47.106Z,1016.48
2018-12-12T02:34:47.093Z,1016.47
2018-12-12T02:35:47.108Z,1016.52
2018-12-12T02:36:47.072Z,1016.50
2018-12-12T02:37:47.057Z,1016.54
2018-12-12T02:38:47.059Z,1016.57
2018-12-12T02:39:47.200Z,1016.54
2018-12-12T02:40:47.032Z,1016.57
2018-12-12T02:41:47.042Z,1016.56
2018-12-12T02:42:47.005Z,1016.55
2018-12-12T02:43:46.991Z,1016.55
2018-12-12T02:44:46.986Z,1016.54
2018-12-12T02:45:46.971Z,1016.57
2018-12-12T02:46:46.975Z,1016.51
2018-12-12T02:47:46.952Z,1016.56
2018-12-12T02:48:46.941Z,1016.58
2018-12-12T02:49:46.926Z,1016.58
2018-12-12T02:50:46.915Z,1016.59
2018-12-12T02:51:46.925Z,1016.62
2018-12-12T02:52:46.897Z,1016.61
2018-12-12T02:53:46.883Z,1016.60
2018-12-12T02:54:46.880Z,1016.62
2018-12-12T02:55:46.870Z,1016.61
2018-12-12T02:56:46.873Z,1016.57
2018-12-12T02:57:46.836Z,1016.65
2018-12-12T02:58:46.827Z,1016.63
2018-12-12T02:59:46.819Z,1016.64
2018-12-12T03:00:46.812Z,1016.72
2018-12-12T03:01:46.811Z,1016.69
2018-12-12T03:02:46.782Z,1016.71
2018-12-12T03:03:46.775Z,1016.68
2018-12-12T03:04:46.765Z,1016.65
2018-12-12T03:05:46.755Z,1016.66
2018-12-12T03:06:46.760Z,1016.66
2018-12-12T03:07:46.750Z,1016.69
2018-12-12T03:08:46.722Z,1016.66
2018-12-12T03:09:46.709Z,1016.65
2018-12-12T03:10:46.696Z,1016.61
2018-12-12T03:11:46.688Z,1016.68
2018-12-12T03:12:46.690Z,1016.65
2018-12-12T03:13:46.664Z,1016.64
2018-12-12T03:14:46.661Z,1016.66
2018-12-12T03:15:46.642Z,1016.73
2018-12-12T03:16:46.630Z,1016.71
2018-12-12T03:17:46.639Z,1016.69
2018-12-12T03:18:46.609Z,1016.69
2018-12-12T03:19:46.601Z,1016.75
2018-12-12T03:20:46.587Z,1016.77
2018-12-12T03:21:46.581Z,1016.76
2018-12-12T03:22:46.586Z,1016.74
2018-12-12T03:23:46.549Z,1016.79
2018-12-12T03:24:46.542Z,1016.81
2018-12-12T03:25:46.528Z,1016.80
2018-12-12T03:26:46.523Z,1016.82
2018-12-12T03:27:46.527Z,1016.88
2018-12-12T03:28:46.496Z,1016.86
2018-12-12T03:29:46.483Z,1016.87
2018-12-12T03:30:46.485Z,1016.93
2018-12-12T03:31:46.465Z,1016.93
2018-12-12T03:32:46.483Z,1016.96
2018-12-12T03:33:46.446Z,1016.95
2018-12-12T03:34:46.432Z,1016.99
2018-12-12T03:35:46.420Z,1016.99
2018-12-12T03:36:46.410Z,1017.02
2018-12-12T03:37:46.421Z,1017.04
2018-12-12T03:38:46.393Z,1017.03
2018-12-12T03:39:46.371Z,1016.98
2018-12-12T03:40:46.360Z,1017.05
2018-12-12T03:41:46.353Z,1017.07
2018-12-12T03:42:46.363Z,1017.08
2018-12-12T03:43:46.331Z,1017.08
2018-12-12T03:44:46.331Z,1017.07
2018-12-12T03:45:46.314Z,1017.05
2018-12-12T03:46:46.302Z,1017.09
2018-12-12T03:47:46.317Z,1017.06
2018-12-12T03:48:46.277Z,1017.13
2018-12-12T03:49:46.267Z,1017.08
2018-12-12T03:50:46.258Z,1017.11
2018-12-12T03:51:46.247Z,1017.14
2018-12-12T03:53:46.241Z,1017.15
2018-12-12T03:54:46.213Z,1017.14
2018-12-12T03:55:46.198Z,1017.19
2018-12-12T03:56:46.188Z,1017.20
2018-12-12T03:57:46.180Z,1017.21
2018-12-12T03:58:46.188Z,1017.22
2018-12-12T03:59:46.156Z,1017.22
2018-12-12T04:00:46.149Z,1017.21
2018-12-12T04:01:46.133Z,1017.18
2018-12-12T04:02:46.121Z,1017.22
2018-12-12T04:03:46.127Z,1017.26
2018-12-12T04:04:46.102Z,1017.25
2018-12-12T04:05:46.090Z,1017.32
2018-12-12T04:06:46.079Z,1017.29
2018-12-12T04:07:46.071Z,1017.32
2018-12-12T04:08:46.069Z,1017.36
2018-12-12T04:09:46.050Z,1017.40
2018-12-12T04:10:46.034Z,1017.37
2018-12-12T04:11:46.023Z,1017.37
2018-12-12T04:12:46.020Z,1017.38
2018-12-12T04:13:46.026Z,1017.37
2018-12-12T04:14:45.992Z,1017.40
2018-12-12T04:15:45.981Z,1017.44
2018-12-12T04:16:45.971Z,1017.44
2018-12-12T04:17:45.965Z,1017.42
2018-12-12T04:18:45.965Z,1017.49
2018-12-12T04:19:45.937Z,1017.46
2018-12-12T04:20:45.924Z,1017.45
2018-12-12T04:21:45.913Z,1017.46
2018-12-12T04:22:45.907Z,1017.45
2018-12-12T04:23:45.926Z,1017.48
2018-12-12T04:24:45.895Z,1017.49
2018-12-12T04:25:45.870Z,1017.52
2018-12-12T04:26:45.860Z,1017.51
2018-12-12T04:27:45.852Z,1017.54
2018-12-12T04:28:45.860Z,1017.53
2018-12-12T04:29:45.849Z,1017.51
2018-12-12T04:30:45.813Z,1017.57
2018-12-12T04:31:45.804Z,1017.57
2018-12-12T04:32:45.795Z,1017.55
2018-12-12T04:33:45.796Z,1017.55
2018-12-12T04:34:45.769Z,1017.57
2018-12-12T04:35:45.760Z,1017.58
2018-12-12T04:36:45.752Z,1017.59
2018-12-12T04:37:45.739Z,1017.56
2018-12-12T04:38:45.751Z,1017.56
2018-12-12T04:39:45.717Z,1017.56
2018-12-12T04:40:45.705Z,1017.60
2018-12-12T04:41:45.704Z,1017.56
2018-12-12T04:42:45.696Z,1017.56
2018-12-12T04:43:45.695Z,1017.58
2018-12-12T04:44:45.661Z,1017.62
2018-12-12T04:45:45.647Z,1017.63
2018-12-12T04:46:45.638Z,1017.65
2018-12-12T04:47:45.633Z,1017.60
2018-12-12T04:48:45.660Z,1017.61
2018-12-12T04:49:45.607Z,1017.66
2018-12-12T04:50:45.595Z,1017.62
2018-12-12T04:51:45.582Z,1017.61
2018-12-12T04:52:45.577Z,1017.61
2018-12-12T04:53:45.585Z,1017.62
2018-12-12T04:54:45.554Z,1017.64
2018-12-12T04:55:45.542Z,1017.63
2018-12-12T04:56:45.528Z,1017.59
2018-12-12T04:57:45.524Z,1017.64
2018-12-12T04:58:45.538Z,1017.63
2018-12-12T04:59:45.509Z,1017.65
2018-12-12T05:00:45.483Z,1017.58
2018-12-12T05:01:45.475Z,1017.59
2018-12-12T05:02:45.462Z,1017.65
2018-12-12T05:03:45.452Z,1017.61
2018-12-12T05:04:45.467Z,1017.69
2018-12-12T05:05:45.438Z,1017.66
2018-12-12T05:06:45.417Z,1017.68
2018-12-12T05:07:45.413Z,1017.66
2018-12-12T05:08:45.399Z,1017.73
2018-12-12T05:09:45.408Z,1017.69
2018-12-12T05:10:45.377Z,1017.71
2018-12-12T05:11:45.378Z,1017.66
2018-12-12T05:12:45.359Z,1017.70
2018-12-12T05:13:45.341Z,1017.68
2018-12-12T05:14:45.352Z,1017.69
2018-12-12T05:15:45.324Z,1017.68
2018-12-12T05:16:45.313Z,1017.70
2018-12-12T05:17:45.318Z,1017.77
2018-12-12T05:18:45.291Z,1017.87
2018-12-12T05:19:45.306Z,1017.85
2018-12-12T05:20:45.280Z,1017.87
2018-12-12T05:21:45.257Z,1017.86
2018-12-12T05:22:45.242Z,1017.88
2018-12-12T05:23:45.236Z,1017.93
2018-12-12T05:24:45.241Z,1017.97
2018-12-12T05:25:45.211Z,1017.96
2018-12-12T05:26:45.204Z,1017.97
2018-12-12T05:27:45.190Z,1018.01
2018-12-12T05:28:45.180Z,1017.98
2018-12-12T05:29:45.194Z,1017.98
2018-12-12T05:30:45.163Z,1018.03
2018-12-12T05:31:45.152Z,1018.03
2018-12-12T05:32:45.139Z,1018.03
2018-12-12T05:33:45.124Z,1018.04
2018-12-12T05:34:45.136Z,1018.05
2018-12-12T05:35:45.102Z,1018.06
2018-12-12T05:36:45.092Z,1018.07
2018-12-12T05:37:50.794Z,1018.10
2018-12-12T05:38:46.079Z,1018.08
2018-12-12T05:39:45.087Z,1018.12
2018-12-12T05:40:45.051Z,1018.11
2018-12-12T05:41:45.035Z,1018.15
2018-12-12T05:42:45.023Z,1018.12
2018-12-12T05:43:45.017Z,1018.17
2018-12-12T05:44:45.002Z,1018.10
2018-12-12T05:45:45.052Z,1018.16
2018-12-12T05:46:44.987Z,1018.18
2018-12-12T05:47:44.968Z,1018.17
2018-12-12T05:48:44.966Z,1018.22
2018-12-12T05:49:44.949Z,1018.18
2018-12-12T05:50:44.955Z,1018.19
2018-12-12T05:51:44.932Z,1018.16
2018-12-12T05:52:44.914Z,1018.19
2018-12-12T05:53:44.903Z,1018.22
2018-12-12T05:54:44.893Z,1018.23
2018-12-12T05:55:44.901Z,1018.20
2018-12-12T05:56:44.872Z,1018.14
2018-12-12T05:57:44.862Z,1018.14
2018-12-12T05:58:44.852Z,1018.15
2018-12-12T05:59:44.842Z,1018.15
2018-12-12T06:00:44.847Z,1018.17
2018-12-12T06:01:44.823Z,1018.21
2018-12-12T06:02:44.807Z,1018.22
2018-12-12T06:03:44.799Z,1018.17
2018-12-12T06:04:44.785Z,1018.18
2018-12-12T06:05:44.807Z,1018.19
2018-12-12T06:06:44.767Z,1018.22
2018-12-12T06:07:44.748Z,1018.25
2018-12-12T06:08:44.743Z,1018.27
2018-12-12T06:09:44.729Z,1018.25
2018-12-12T06:10:44.749Z,1018.29
2018-12-12T06:11:44.708Z,1018.28
2018-12-12T06:12:44.705Z,1018.32
2018-12-12T06:13:44.683Z,1018.30
2018-12-12T06:14:44.736Z,1018.32
2018-12-12T06:15:44.679Z,1018.32
2018-12-12T06:16:44.655Z,1018.30
2018-12-12T06:17:44.646Z,1018.32
2018-12-12T06:18:44.633Z,1018.39
2018-12-12T06:19:44.619Z,1018.39
2018-12-12T06:20:44.671Z,1018.38
2018-12-12T06:21:44.600Z,1018.42
2018-12-12T06:22:44.588Z,1018.41
2018-12-12T06:23:44.593Z,1018.43
2018-12-12T06:24:44.570Z,1018.39
2018-12-12T06:25:44.573Z,1018.42
2018-12-12T06:26:44.553Z,1018.45
2018-12-12T06:27:44.540Z,1018.44
2018-12-12T06:28:44.521Z,1018.47
2018-12-12T06:29:44.512Z,1018.42
2018-12-12T06:30:44.523Z,1018.46
2018-12-12T06:31:44.496Z,1018.48
2018-12-12T06:32:44.479Z,1018.50
2018-12-12T06:33:44.470Z,1018.56
2018-12-12T06:34:44.459Z,1018.47
2018-12-12T06:35:44.467Z,1018.50
2018-12-12T06:36:44.437Z,1018.53
2018-12-12T06:37:44.424Z,1018.58
2018-12-12T06:38:44.409Z,1018.56
2018-12-12T06:39:44.399Z,1018.52
2018-12-12T06:40:44.417Z,1018.58
2018-12-12T06:41:44.387Z,1018.59
2018-12-12T06:42:44.371Z,1018.54
2018-12-12T06:43:44.359Z,1018.56
2018-12-12T06:44:44.346Z,1018.62
2018-12-12T06:45:44.363Z,1018.64
2018-12-12T06:46:44.324Z,1018.63
2018-12-12T06:47:44.316Z,1018.65
2018-12-12T06:48:44.306Z,1018.69
2018-12-12T06:49:44.297Z,1018.69
2018-12-12T06:50:44.314Z,1018.73
2018-12-12T06:51:44.269Z,1018.77
2018-12-12T06:52:44.264Z,1018.79
2018-12-12T06:53:44.245Z,1018.80
2018-12-12T06:54:44.247Z,1018.82
2018-12-12T06:55:44.261Z,1018.83
2018-12-12T06:56:44.218Z,1018.90
2018-12-12T06:57:44.206Z,1018.92
2018-12-12T06:58:44.199Z,1018.88
2018-12-12T06:59:44.183Z,1018.88
2018-12-12T07:00:44.176Z,1018.89
2018-12-12T07:01:44.175Z,1018.91
2018-12-12T07:02:44.149Z,1018.97
2018-12-12T07:03:44.143Z,1018.95
2018-12-12T07:04:44.126Z,1018.94
2018-12-12T07:05:44.119Z,1018.96
2018-12-12T07:06:44.122Z,1018.98
2018-12-12T07:07:44.097Z,1018.98
2018-12-12T07:08:44.083Z,1019.01
2018-12-12T07:09:44.079Z,1019.00
2018-12-12T07:10:44.069Z,1019.01
2018-12-12T07:11:44.068Z,1018.97
2018-12-12T07:12:44.045Z,1019.06
2018-12-12T07:13:44.045Z,1019.06
2018-12-12T07:14:44.022Z,1019.04
2018-12-12T07:15:44.029Z,1019.06
2018-12-12T07:16:44.038Z,1019.08
2018-12-12T07:17:43.992Z,1019.13
2018-12-12T07:18:43.983Z,1019.11
2018-12-12T07:19:43.962Z,1019.13
2018-12-12T07:20:43.957Z,1019.11
2018-12-12T07:21:43.961Z,1019.13
2018-12-12T07:22:43.931Z,1019.16
2018-12-12T07:23:43.937Z,1019.16
2018-12-12T07:24:43.911Z,1019.14
2018-12-12T07:25:43.901Z,1019.14
2018-12-12T07:26:43.929Z,1019.07
2018-12-12T07:27:43.874Z,1019.12
2018-12-12T07:28:44.638Z,1019.12
2018-12-12T07:29:43.857Z,1019.15
2018-12-12T07:30:43.848Z,1019.16
2018-12-12T07:31:43.850Z,1019.18
2018-12-12T07:32:43.827Z,1019.15
2018-12-12T07:33:43.811Z,1019.18
2018-12-12T07:34:43.803Z,1019.16
2018-12-12T07:35:43.789Z,1019.22
2018-12-12T07:36:43.795Z,1019.26
2018-12-12T07:37:43.796Z,1019.23
2018-12-12T07:38:43.757Z,1019.19
2018-12-12T07:39:43.749Z,1019.19
2018-12-12T07:40:43.736Z,1019.25
2018-12-12T07:41:43.720Z,1019.26
2018-12-12T07:42:43.723Z,1019.33
2018-12-12T07:43:43.707Z,1019.29
2018-12-12T07:44:43.689Z,1019.31
2018-12-12T07:45:43.680Z,1019.30
2018-12-12T07:46:43.670Z,1019.27
2018-12-12T07:47:43.707Z,1019.30
2018-12-12T07:48:43.641Z,1019.29
2018-12-12T07:49:43.671Z,1019.31
2018-12-12T07:50:44.168Z,1019.31
2018-12-12T07:51:43.611Z,1019.29
2018-12-12T07:52:43.623Z,1019.32
2018-12-12T07:53:43.593Z,1019.37
2018-12-12T07:54:43.582Z,1019.39
2018-12-12T07:55:43.570Z,1019.42
2018-12-12T07:56:43.555Z,1019.41
2018-12-12T07:57:43.567Z,1019.42
2018-12-12T07:58:43.542Z,1019.40
2018-12-12T07:59:43.523Z,1019.38
2018-12-12T08:00:43.513Z,1019.37
2018-12-12T08:01:43.501Z,1019.40
2018-12-12T08:02:43.508Z,1019.41
2018-12-12T08:03:43.483Z,1019.43
2018-12-12T08:04:43.476Z,1019.46
2018-12-12T08:05:43.459Z,1019.52
2018-12-12T08:06:43.450Z,1019.55
2018-12-12T08:07:43.459Z,1019.56
2018-12-12T08:08:43.427Z,1019.57
2018-12-12T08:09:43.420Z,1019.52
2018-12-12T08:10:43.399Z,1019.55
2018-12-12T08:11:43.399Z,1019.52
2018-12-12T08:12:43.405Z,1019.54
2018-12-12T08:13:43.371Z,1019.49
2018-12-12T08:14:43.367Z,1019.55
2018-12-12T08:15:43.352Z,1019.55
2018-12-12T08:16:43.335Z,1019.57
2018-12-12T08:17:43.345Z,1019.62
2018-12-12T08:18:43.320Z,1019.61
2018-12-12T08:19:43.303Z,1019.59
2018-12-12T08:20:43.297Z,1019.63
2018-12-12T08:21:43.284Z,1019.60
2018-12-12T08:22:43.317Z,1019.63
2018-12-12T08:23:43.259Z,1019.61
2018-12-12T08:24:43.247Z,1019.65
2018-12-12T08:25:43.239Z,1019.64
2018-12-12T08:26:43.233Z,1019.64
2018-12-12T08:27:43.215Z,1019.63
2018-12-12T08:28:43.236Z,1019.65
2018-12-12T08:29:43.197Z,1019.68
2018-12-12T08:30:43.187Z,1019.66
2018-12-12T08:31:43.173Z,1019.64
2018-12-12T08:32:43.165Z,1019.72
2018-12-12T08:33:43.169Z,1019.69
2018-12-12T08:34:43.141Z,1019.68
2018-12-12T08:35:43.127Z,1019.69
2018-12-12T08:36:43.119Z,1019.70
2018-12-12T08:37:43.109Z,1019.69
2018-12-12T08:38:43.128Z,1019.68
2018-12-12T08:39:43.087Z,1019.72
2018-12-12T08:40:43.074Z,1019.66
2018-12-12T08:41:43.061Z,1019.70
2018-12-12T08:42:43.057Z,1019.69
2018-12-12T08:43:43.057Z,1019.76
2018-12-12T08:44:43.033Z,1019.74
2018-12-12T08:45:43.016Z,1019.70
2018-12-12T08:46:43.007Z,1019.75
2018-12-12T08:47:42.997Z,1019.73
2018-12-12T08:48:43.010Z,1019.73
2018-12-12T08:49:42.976Z,1019.74
2018-12-12T08:50:42.969Z,1019.74
2018-12-12T08:51:42.966Z,1019.78
2018-12-12T08:52:42.939Z,1019.71
2018-12-12T08:53:42.979Z,1019.80
2018-12-12T08:54:42.923Z,1019.78
2018-12-12T08:55:42.909Z,1019.77
2018-12-12T08:56:42.901Z,1019.78
2018-12-12T08:57:42.887Z,1019.79
2018-12-12T08:58:42.901Z,1019.80
2018-12-12T08:59:42.867Z,1019.78
2018-12-12T09:00:42.855Z,1019.84
2018-12-12T09:01:42.844Z,1019.79
2018-12-12T09:02:42.828Z,1019.82
2018-12-12T09:03:42.845Z,1019.85
2018-12-12T09:04:42.807Z,1019.84
2018-12-12T09:05:42.861Z,1019.87
2018-12-12T09:06:42.792Z,1019.89
2018-12-12T09:07:42.773Z,1019.91
2018-12-12T09:08:42.775Z,1019.97
2018-12-12T09:09:42.776Z,1019.96
2018-12-12T09:10:42.749Z,1020.03
2018-12-12T09:11:42.727Z,1019.98
2018-12-12T09:12:42.722Z,1020.01
2018-12-12T09:13:42.711Z,1020.03
2018-12-12T09:14:42.713Z,1020.03
2018-12-12T09:15:42.754Z,1020.02
2018-12-12T09:16:42.678Z,1020.05
2018-12-12T09:17:42.681Z,1020.04
2018-12-12T09:18:42.657Z,1020.06
2018-12-12T09:19:42.679Z,1020.05
2018-12-12T09:20:42.630Z,1020.06
2018-12-12T09:21:42.627Z,1020.11
2018-12-12T09:22:42.609Z,1020.11
2018-12-12T09:23:42.605Z,1020.09
2018-12-12T09:24:42.625Z,1020.09
2018-12-12T09:25:42.580Z,1020.12
2018-12-12T09:26:42.576Z,1020.12
2018-12-12T09:27:42.558Z,1020.13
2018-12-12T09:28:42.542Z,1020.13
2018-12-12T09:29:42.555Z,1020.13
2018-12-12T09:30:42.524Z,1020.13
2018-12-12T09:31:42.512Z,1020.09
2018-12-12T09:32:42.499Z,1020.10
2018-12-12T09:33:42.488Z,1020.07
2018-12-12T09:34:42.493Z,1020.08
2018-12-12T09:35:42.464Z,1020.04
2018-12-12T09:36:42.461Z,1020.02
2018-12-12T09:37:42.453Z,1020.01
2018-12-12T09:38:42.438Z,1020.03
2018-12-12T09:39:42.453Z,1020.00
2018-12-12T09:40:42.419Z,1020.03
2018-12-12T09:41:42.415Z,1020.06
2018-12-12T09:42:42.403Z,1020.01
2018-12-12T09:43:42.381Z,1020.01
2018-12-12T09:44:42.409Z,1019.96
2018-12-12T09:45:42.353Z,1019.97
2018-12-12T09:46:42.345Z,1019.99
2018-12-12T09:47:42.337Z,1020.01
2018-12-12T09:48:42.331Z,1020.00
2018-12-12T09:49:42.331Z,1020.05
2018-12-12T09:50:42.306Z,1020.03
2018-12-12T09:51:42.293Z,1020.04
2018-12-12T09:52:42.281Z,1020.04
2018-12-12T09:53:42.269Z,1020.07
2018-12-12T09:54:42.278Z,1020.13
2018-12-12T09:55:42.253Z,1020.11
2018-12-12T09:56:42.237Z,1020.03
2018-12-12T09:57:42.227Z,1020.06
2018-12-12T09:58:42.213Z,1020.03
2018-12-12T09:59:42.219Z,1020.06
2018-12-12T10:00:42.214Z,1020.10
2018-12-12T10:01:42.179Z,1020.11
2018-12-12T10:02:42.171Z,1020.12
2018-12-12T10:03:42.159Z,1020.08
2018-12-12T10:04:42.149Z,1020.08
2018-12-12T10:05:42.163Z,1020.09
2018-12-12T10:06:42.126Z,1020.08
2018-12-12T10:07:42.114Z,1020.03
2018-12-12T10:08:42.106Z,1020.13
2018-12-12T10:09:42.098Z,1020.12
2018-12-12T10:10:42.098Z,1020.13
2018-12-12T10:11:42.069Z,1020.09
2018-12-12T10:12:42.061Z,1020.10
2018-12-12T10:13:42.051Z,1020.08
2018-12-12T10:14:42.043Z,1020.09
2018-12-12T10:15:42.062Z,1020.09
2018-12-12T10:16:42.015Z,1020.09
2018-12-12T10:17:42.001Z,1020.14
2018-12-12T10:18:41.997Z,1020.14
2018-12-12T10:19:41.983Z,1020.12
2018-12-12T10:20:41.999Z,1020.13
2018-12-12T10:21:41.961Z,1020.05
2018-12-12T10:22:41.954Z,1020.11
2018-12-12T10:23:41.938Z,1020.06
2018-12-12T10:24:41.931Z,1020.11
2018-12-12T10:25:41.933Z,1020.19
2018-12-12T10:26:41.904Z,1020.18
2018-12-12T10:27:41.892Z,1020.15
2018-12-12T10:28:41.880Z,1020.09
2018-12-12T10:29:41.874Z,1020.12
2018-12-12T10:30:41.881Z,1020.08
2018-12-12T10:31:41.855Z,1020.04
2018-12-12T10:32:41.842Z,1020.12
2018-12-12T10:33:41.830Z,1020.07
2018-12-12T10:34:41.815Z,1020.09
2018-12-12T10:35:41.827Z,1020.13
2018-12-12T10:36:41.800Z,1020.11
2018-12-12T10:37:41.779Z,1020.06
2018-12-12T10:38:41.769Z,1020.07
2018-12-12T10:39:41.758Z,1020.10
2018-12-12T10:40:41.785Z,1020.21
2018-12-12T10:41:41.744Z,1020.15
2018-12-12T10:42:41.731Z,1020.17
2018-12-12T10:43:41.720Z,1020.17
2018-12-12T10:44:41.704Z,1020.19
2018-12-12T10:45:41.721Z,1020.17
2018-12-12T10:46:41.685Z,1020.11
2018-12-12T10:47:41.671Z,1020.10
2018-12-12T10:48:41.661Z,1020.18
2018-12-12T10:49:41.650Z,1020.15
2018-12-12T10:50:41.644Z,1020.12
2018-12-12T10:51:41.663Z,1020.17
2018-12-12T10:52:41.618Z,1020.20
2018-12-12T10:53:41.606Z,1020.19
2018-12-12T10:54:41.595Z,1020.19
2018-12-12T10:55:41.591Z,1020.21
2018-12-12T10:56:41.594Z,1020.16
2018-12-12T10:57:41.587Z,1020.16
2018-12-12T10:58:41.555Z,1020.15
2018-12-12T10:59:41.539Z,1020.19
2018-12-12T11:00:41.526Z,1020.18
2018-12-12T11:01:41.540Z,1020.24
2018-12-12T11:02:41.509Z,1020.18
2018-12-12T11:03:44.427Z,1020.18
2018-12-12T11:04:41.487Z,1020.18
2018-12-12T11:05:41.473Z,1020.17
2018-12-12T11:06:41.483Z,1020.17
2018-12-12T11:07:41.454Z,1020.17
2018-12-12T11:08:41.446Z,1020.22
2018-12-12T11:09:41.433Z,1020.17
2018-12-12T11:10:41.421Z,1020.19
2018-12-12T11:11:41.429Z,1020.19
2018-12-12T11:12:41.395Z,1020.21
2018-12-12T11:13:41.381Z,1020.22
2018-12-12T11:14:41.370Z,1020.22
2018-12-12T11:15:41.359Z,1020.22
2018-12-12T11:16:41.373Z,1020.25
2018-12-12T11:17:41.343Z,1020.25
2018-12-12T11:18:41.327Z,1020.21
2018-12-12T11:19:41.315Z,1020.26
2018-12-12T11:20:41.305Z,1020.22
2018-12-12T11:21:41.317Z,1020.24
2018-12-12T11:22:41.281Z,1020.23
2018-12-12T11:23:41.275Z,1020.25
2018-12-12T11:24:41.261Z,1020.31
2018-12-12T11:25:41.256Z,1020.28
2018-12-12T11:26:41.253Z,1020.25
2018-12-12T11:27:41.232Z,1020.25
2018-12-12T11:28:41.220Z,1020.30
2018-12-12T11:29:41.205Z,1020.28
2018-12-12T11:30:41.208Z,1020.27
2018-12-12T11:31:41.332Z,1020.28
2018-12-12T11:32:41.173Z,1020.24
2018-12-12T11:33:41.163Z,1020.26
2018-12-12T11:34:41.155Z,1020.16
2018-12-12T11:35:41.138Z,1020.20
2018-12-12T11:36:41.153Z,1020.21
2018-12-12T11:37:41.113Z,1020.20
2018-12-12T11:38:41.104Z,1020.23
2018-12-12T11:39:41.092Z,1020.20
2018-12-12T11:40:41.087Z,1020.13
2018-12-12T11:41:41.093Z,1020.18
2018-12-12T11:42:41.063Z,1020.15
2018-12-12T11:43:41.057Z,1020.14
2018-12-12T11:44:41.036Z,1020.09
2018-12-12T11:45:41.022Z,1020.09
2018-12-12T11:46:41.032Z,1020.14
2018-12-12T11:47:41.022Z,1020.16
2018-12-12T11:48:41.001Z,1020.12
2018-12-12T11:49:40.985Z,1020.13
2018-12-12T11:50:40.969Z,1020.13
2018-12-12T11:51:40.978Z,1020.17
2018-12-12T11:52:40.968Z,1020.15
2018-12-12T11:53:40.960Z,1020.10
2018-12-12T11:54:40.925Z,1020.09
2018-12-12T11:55:40.913Z,1020.07
2018-12-12T11:56:40.903Z,1020.09
2018-12-12T11:57:40.916Z,1020.14
2018-12-12T11:58:40.882Z,1020.14
2018-12-12T11:59:40.867Z,1020.15
2018-12-12T12:00:40.866Z,1020.16
2018-12-12T12:01:40.854Z,1020.15
2018-12-12T12:02:40.864Z,1020.19
2018-12-12T12:03:40.830Z,1020.18
2018-12-12T12:04:40.815Z,1020.15
2018-12-12T12:05:40.815Z,1020.16
2018-12-12T12:06:40.803Z,1020.11
2018-12-12T12:07:40.807Z,1020.12